createdAt,value
2023-03-29T00:00:42.012Z,99.85
2023-03-29T00:01:42.092Z,99.99
2023-03-29T00:02:42.109Z,99.99
2023-03-29T00:03:42.036Z,99.99
2023-03-29T00:04:42.126Z,99.99
2023-03-29T00:05:41.976Z,99.95
2023-03-29T00:06:41.974Z,99.99
2023-03-29T00:07:41.963Z,99.85
2023-03-29T00:08:41.968Z,99.99
2023-03-29T00:09:41.956Z,99.99
2023-03-29T00:10:41.951Z,99.99
2023-03-29T00:11:41.951Z,99.99
2023-03-29T00:13:41.954Z,99.99
2023-03-29T00:14:41.939Z,99.99
2023-03-29T00:15:41.924Z,99.99
2023-03-29T00:16:41.945Z,99.99
2023-03-29T00:17:41.940Z,99.99
2023-03-29T00:18:41.916Z,99.99
2023-03-29T00:19:41.910Z,99.99
2023-03-29T00:20:41.901Z,99.99
2023-03-29T00:21:41.901Z,99.99
2023-03-29T00:22:41.893Z,99.99
2023-03-29T00:23:41.900Z,99.99
2023-03-29T00:24:41.883Z,99.99
2023-03-29T00:25:41.876Z,99.99
2023-03-29T00:26:41.875Z,99.99
2023-03-29T00:27:41.870Z,99.99
2023-03-29T00:28:41.864Z,99.99
2023-03-29T00:29:41.884Z,99.99
2023-03-29T00:30:41.851Z,99.99
2023-03-29T00:31:41.875Z,99.99
2023-03-29T00:32:41.921Z,99.99
2023-03-29T00:33:41.854Z,99.99
2023-03-29T00:34:41.830Z,99.99
2023-03-29T00:35:41.873Z,99.99
2023-03-29T00:36:41.822Z,99.99
2023-03-29T00:37:41.822Z,99.99
2023-03-29T00:38:41.816Z,99.99
2023-03-29T00:39:41.812Z,99.99
2023-03-29T00:40:41.810Z,99.99
2023-03-29T00:41:41.817Z,99.99
2023-03-29T00:42:41.791Z,99.99
2023-03-29T00:43:41.796Z,99.99
2023-03-29T00:44:41.789Z,99.99
2023-03-29T00:45:41.802Z,99.99
2023-03-29T00:46:41.788Z,99.99
2023-03-29T00:47:41.828Z,99.99
2023-03-29T00:48:41.772Z,99.99
2023-03-29T00:49:41.790Z,99.99
2023-03-29T00:50:41.754Z,99.99
2023-03-29T00:51:41.755Z,99.99
2023-03-29T00:52:41.743Z,99.99
2023-03-29T00:53:41.741Z,99.99
2023-03-29T00:54:41.736Z,99.99
2023-03-29T00:55:41.730Z,99.99
2023-03-29T00:56:41.788Z,99.99
2023-03-29T00:57:41.719Z,99.99
2023-03-29T00:58:41.710Z,99.99
2023-03-29T00:59:41.711Z,99.99
2023-03-29T01:00:41.705Z,99.99
2023-03-29T01:01:41.764Z,99.99
2023-03-29T01:02:41.824Z,99.99
2023-03-29T01:03:41.797Z,99.99
2023-03-29T01:04:41.720Z,99.99
2023-03-29T01:05:41.695Z,99.99
2023-03-29T01:06:41.732Z,99.99
2023-03-29T01:07:41.676Z,99.99
2023-03-29T01:08:41.669Z,99.99
2023-03-29T01:09:41.664Z,99.99
2023-03-29T01:10:41.653Z,99.99
2023-03-29T01:11:41.656Z,99.99
2023-03-29T01:12:41.647Z,99.99
2023-03-29T01:13:41.679Z,99.99
2023-03-29T01:14:41.636Z,99.99
2023-03-29T01:15:41.635Z,99.99
2023-03-29T01:16:41.695Z,99.99
2023-03-29T01:17:41.687Z,99.99
2023-03-29T01:18:41.612Z,99.99
2023-03-29T01:19:41.615Z,99.99
2023-03-29T01:20:41.613Z,99.99
2023-03-29T01:21:41.610Z,99.99
2023-03-29T01:22:41.599Z,99.99
2023-03-29T01:23:41.596Z,99.99
2023-03-29T01:24:41.590Z,99.99
2023-03-29T01:25:41.580Z,99.99
2023-03-29T01:26:41.595Z,99.99
2023-03-29T01:27:41.576Z,99.99
2023-03-29T01:28:41.575Z,99.99
2023-03-29T01:29:41.564Z,99.99
2023-03-29T01:30:41.556Z,99.99
2023-03-29T01:31:41.560Z,99.99
2023-03-29T01:32:41.630Z,99.99
2023-03-29T01:33:41.570Z,99.99
2023-03-29T01:34:41.642Z,99.99
2023-03-29T01:35:41.559Z,99.99
2023-03-29T01:36:41.522Z,99.99
2023-03-29T01:37:41.521Z,99.99
2023-03-29T01:38:41.523Z,99.99
2023-03-29T01:39:41.509Z,99.99
2023-03-29T01:40:41.498Z,99.99
2023-03-29T01:41:41.495Z,99.99
2023-03-29T01:42:41.488Z,99.99
2023-03-29T01:43:41.487Z,99.99
2023-03-29T01:44:41.497Z,99.99
2023-03-29T01:45:41.507Z,99.99
2023-03-29T01:46:41.469Z,99.99
2023-03-29T01:47:41.535Z,99.99
2023-03-29T01:48:41.459Z,99.99
2023-03-29T01:49:41.482Z,99.99
2023-03-29T01:50:41.457Z,99.99
2023-03-29T01:51:41.452Z,99.99
2023-03-29T01:52:41.441Z,99.99
2023-03-29T01:53:41.440Z,99.99
2023-03-29T01:54:41.434Z,99.99
2023-03-29T01:55:41.444Z,99.99
2023-03-29T01:56:41.432Z,99.99
2023-03-29T01:57:41.414Z,99.99
2023-03-29T01:58:41.408Z,99.99
2023-03-29T01:59:41.401Z,99.99
2023-03-29T02:00:41.404Z,99.99
2023-03-29T02:01:41.418Z,99.99
2023-03-29T02:02:41.469Z,99.99
2023-03-29T02:03:41.429Z,99.99
2023-03-29T02:04:41.375Z,99.99
2023-03-29T02:05:41.402Z,99.99
2023-03-29T02:06:41.375Z,99.99
2023-03-29T02:07:41.363Z,99.99
2023-03-29T02:08:41.358Z,99.99
2023-03-29T02:09:41.354Z,99.99
2023-03-29T02:10:41.342Z,99.99
2023-03-29T02:11:41.342Z,99.99
2023-03-29T02:12:41.330Z,99.99
2023-03-29T02:13:41.329Z,99.99
2023-03-29T02:14:41.324Z,99.99
2023-03-29T02:15:41.370Z,99.99
2023-03-29T02:16:41.307Z,99.99
2023-03-29T02:17:41.344Z,99.99
2023-03-29T02:18:41.314Z,99.99
2023-03-29T02:19:41.295Z,99.99
2023-03-29T02:20:41.288Z,99.99
2023-03-29T02:21:41.311Z,99.99
2023-03-29T02:22:41.277Z,99.99
2023-03-29T02:23:41.281Z,99.99
2023-03-29T02:24:41.271Z,99.99
2023-03-29T02:25:41.269Z,99.99
2023-03-29T02:26:41.264Z,99.99
2023-03-29T02:27:41.252Z,99.99
2023-03-29T02:28:41.246Z,99.99
2023-03-29T02:29:41.243Z,99.99
2023-03-29T02:30:41.235Z,99.99
2023-03-29T02:31:41.282Z,99.99
2023-03-29T02:32:41.279Z,99.99
2023-03-29T02:33:41.226Z,99.99
2023-03-29T02:34:41.214Z,99.99
2023-03-29T02:35:41.273Z,99.99
2023-03-29T02:36:41.208Z,99.99
2023-03-29T02:37:41.225Z,99.99
2023-03-29T02:38:41.191Z,99.99
2023-03-29T02:39:41.186Z,99.99
2023-03-29T02:40:41.192Z,99.99
2023-03-29T02:41:41.179Z,99.99
2023-03-29T02:42:41.170Z,99.99
2023-03-29T02:43:41.168Z,99.99
2023-03-29T02:44:41.162Z,99.99
2023-03-29T02:45:41.176Z,99.99
2023-03-29T02:46:41.178Z,99.99
2023-03-29T02:47:41.192Z,99.99
2023-03-29T02:48:41.139Z,99.99
2023-03-29T02:49:41.136Z,99.99
2023-03-29T02:50:41.134Z,99.99
2023-03-29T02:51:41.127Z,99.99
2023-03-29T02:52:41.124Z,99.99
2023-03-29T02:53:41.148Z,99.99
2023-03-29T02:54:41.108Z,99.99
2023-03-29T02:55:41.104Z,99.99
2023-03-29T02:56:41.125Z,99.99
2023-03-29T02:58:41.092Z,99.99
2023-03-29T02:59:41.086Z,99.99
2023-03-29T03:00:41.074Z,99.99
2023-03-29T03:01:41.105Z,99.99
2023-03-29T03:02:41.184Z,99.99
2023-03-29T03:03:41.210Z,99.99
2023-03-29T03:04:41.055Z,99.99
2023-03-29T03:05:41.059Z,99.99
2023-03-29T03:06:41.055Z,99.99
2023-03-29T03:07:41.041Z,99.99
2023-03-29T03:08:41.040Z,99.99
2023-03-29T03:09:41.054Z,99.99
2023-03-29T03:10:41.028Z,99.99
2023-03-29T03:11:41.026Z,99.99
2023-03-29T03:12:41.022Z,99.99
2023-03-29T03:13:41.011Z,99.99
2023-03-29T03:14:41.003Z,99.99
2023-03-29T03:15:40.999Z,99.99
2023-03-29T03:16:41.050Z,99.99
2023-03-29T03:17:41.103Z,99.99
2023-03-29T03:18:40.983Z,99.99
2023-03-29T03:19:40.980Z,99.99
2023-03-29T03:20:40.984Z,99.99
2023-03-29T03:21:40.965Z,99.99
2023-03-29T03:22:40.957Z,99.99
2023-03-29T03:23:40.952Z,99.99
2023-03-29T03:24:40.944Z,99.99
2023-03-29T03:25:40.960Z,99.99
2023-03-29T03:26:40.936Z,99.99
2023-03-29T03:27:40.928Z,99.99
2023-03-29T03:28:40.920Z,99.99
2023-03-29T03:29:40.917Z,99.99
2023-03-29T03:30:40.911Z,99.99
2023-03-29T03:31:40.946Z,99.99
2023-03-29T03:32:40.908Z,99.99
2023-03-29T03:33:40.933Z,99.99
2023-03-29T03:34:40.897Z,99.99
2023-03-29T03:35:40.930Z,99.99
2023-03-29T03:36:40.874Z,99.99
2023-03-29T03:37:40.870Z,99.99
2023-03-29T03:38:40.879Z,99.99
2023-03-29T03:39:40.860Z,99.99
2023-03-29T03:40:40.869Z,99.99
2023-03-29T03:41:40.877Z,99.99
2023-03-29T03:42:40.838Z,99.99
2023-03-29T03:43:40.837Z,99.99
2023-03-29T03:44:40.837Z,99.99
2023-03-29T03:45:40.865Z,99.99
2023-03-29T03:46:40.819Z,99.99
2023-03-29T03:47:40.819Z,99.99
2023-03-29T03:48:40.811Z,99.99
2023-03-29T03:49:40.812Z,99.99
2023-03-29T03:50:40.792Z,99.99
2023-03-29T03:51:40.789Z,99.99
2023-03-29T03:52:40.784Z,99.99
2023-03-29T03:53:40.785Z,99.99
2023-03-29T03:54:40.772Z,99.99
2023-03-29T03:55:40.766Z,99.99
2023-03-29T03:56:40.809Z,99.99
2023-03-29T03:57:40.787Z,99.99
2023-03-29T03:58:40.750Z,99.99
2023-03-29T03:59:40.763Z,99.99
2023-03-29T04:00:40.744Z,99.99
2023-03-29T04:01:40.740Z,99.99
2023-03-29T04:02:40.804Z,99.99
2023-03-29T04:03:40.761Z,99.99
2023-03-29T04:04:40.718Z,99.99
2023-03-29T04:05:40.715Z,99.99
2023-03-29T04:06:43.161Z,99.99
2023-03-29T04:07:40.699Z,99.99
2023-03-29T04:08:40.710Z,99.99
2023-03-29T04:09:40.700Z,99.99
2023-03-29T04:10:40.689Z,99.99
2023-03-29T04:11:40.682Z,99.99
2023-03-29T04:12:40.670Z,99.99
2023-03-29T04:13:40.691Z,99.99
2023-03-29T04:14:40.660Z,99.99
2023-03-29T04:15:40.690Z,99.99
2023-03-29T04:16:40.645Z,99.99
2023-03-29T04:17:40.713Z,99.99
2023-03-29T04:18:40.710Z,99.99
2023-03-29T04:19:40.632Z,99.99
2023-03-29T04:20:40.620Z,99.99
2023-03-29T04:21:40.620Z,99.99
2023-03-29T04:22:40.611Z,99.99
2023-03-29T04:23:40.607Z,99.99
2023-03-29T04:24:40.599Z,99.99
2023-03-29T04:25:40.598Z,99.99
2023-03-29T04:26:40.608Z,99.99
2023-03-29T04:27:40.617Z,99.99
2023-03-29T04:28:40.579Z,99.99
2023-03-29T04:29:40.605Z,99.99
2023-03-29T04:30:40.567Z,99.99
2023-03-29T04:31:40.630Z,99.99
2023-03-29T04:32:40.669Z,99.99
2023-03-29T04:33:40.558Z,99.99
2023-03-29T04:34:40.553Z,99.99
2023-03-29T04:35:40.562Z,99.99
2023-03-29T04:36:40.544Z,99.99
2023-03-29T04:37:40.527Z,99.99
2023-03-29T04:38:40.532Z,99.99
2023-03-29T04:39:40.531Z,99.99
2023-03-29T04:40:40.546Z,99.99
2023-03-29T04:41:40.516Z,99.99
2023-03-29T04:42:40.511Z,99.99
2023-03-29T04:43:40.498Z,99.99
2023-03-29T04:44:40.535Z,99.99
2023-03-29T04:45:40.511Z,99.99
2023-03-29T04:46:40.559Z,99.99
2023-03-29T04:47:40.481Z,99.99
2023-03-29T04:48:40.480Z,99.99
2023-03-29T04:49:40.467Z,99.99
2023-03-29T04:50:40.477Z,99.99
2023-03-29T04:51:40.457Z,99.99
2023-03-29T04:52:40.457Z,99.99
2023-03-29T04:53:40.445Z,99.99
2023-03-29T04:54:40.447Z,99.99
2023-03-29T04:55:40.435Z,99.99
2023-03-29T04:56:40.478Z,99.99
2023-03-29T04:57:40.424Z,99.99
2023-03-29T04:58:40.424Z,99.99
2023-03-29T04:59:40.416Z,99.99
2023-03-29T05:00:40.412Z,99.99
2023-03-29T05:01:40.454Z,99.99
2023-03-29T05:02:40.429Z,99.99
2023-03-29T05:03:40.391Z,99.99
2023-03-29T05:04:40.486Z,99.99
2023-03-29T05:05:40.375Z,99.99
2023-03-29T05:06:40.372Z,99.99
2023-03-29T05:07:40.369Z,99.99
2023-03-29T05:08:40.391Z,99.99
2023-03-29T05:09:40.361Z,99.99
2023-03-29T05:10:40.353Z,99.99
2023-03-29T05:11:40.347Z,99.99
2023-03-29T05:12:40.348Z,99.99
2023-03-29T05:13:40.332Z,99.99
2023-03-29T05:14:40.328Z,99.99
2023-03-29T05:15:41.298Z,99.99
2023-03-29T05:16:40.443Z,99.99
2023-03-29T05:17:40.397Z,99.99
2023-03-29T05:18:40.340Z,99.99
2023-03-29T05:19:40.303Z,99.99
2023-03-29T05:20:40.296Z,99.99
2023-03-29T05:21:40.287Z,99.99
2023-03-29T05:22:40.336Z,99.99
2023-03-29T05:23:40.277Z,99.99
2023-03-29T05:24:40.276Z,99.99
2023-03-29T05:25:40.266Z,99.99
2023-03-29T05:26:40.264Z,99.99
2023-03-29T05:27:40.259Z,99.99
2023-03-29T05:28:40.250Z,99.99
2023-03-29T05:29:40.246Z,99.99
2023-03-29T05:30:40.236Z,99.99
2023-03-29T05:31:40.259Z,99.99
2023-03-29T05:32:40.256Z,99.99
2023-03-29T05:33:40.249Z,99.99
2023-03-29T05:34:40.215Z,99.99
2023-03-29T05:35:40.221Z,99.99
2023-03-29T05:36:40.204Z,99.99
2023-03-29T05:37:40.196Z,99.99
2023-03-29T05:38:40.197Z,99.99
2023-03-29T05:39:40.189Z,99.99
2023-03-29T05:40:40.183Z,99.99
2023-03-29T05:41:40.174Z,99.99
2023-03-29T05:42:40.176Z,99.99
2023-03-29T05:43:40.174Z,99.99
2023-03-29T05:44:40.162Z,99.99
2023-03-29T05:45:40.171Z,99.99
2023-03-29T05:46:40.148Z,99.99
2023-03-29T05:47:40.173Z,99.99
2023-03-29T05:48:40.144Z,99.99
2023-03-29T05:49:40.155Z,99.99
2023-03-29T05:50:40.126Z,99.99
2023-03-29T05:51:40.117Z,99.99
2023-03-29T05:52:40.116Z,99.99
2023-03-29T05:53:40.104Z,99.99
2023-03-29T05:54:40.112Z,99.99
2023-03-29T05:55:40.102Z,99.99
2023-03-29T05:56:40.148Z,99.99
2023-03-29T05:57:40.085Z,99.99
2023-03-29T05:58:40.084Z,99.99
2023-03-29T05:59:40.095Z,99.99
2023-03-29T06:00:40.076Z,99.99
2023-03-29T06:01:40.120Z,99.99
2023-03-29T06:02:40.207Z,99.99
2023-03-29T06:03:40.165Z,99.99
2023-03-29T06:04:40.167Z,99.99
2023-03-29T06:05:40.067Z,99.99
2023-03-29T06:06:40.039Z,99.99
2023-03-29T06:07:40.033Z,99.99
2023-03-29T06:08:40.039Z,99.99
2023-03-29T06:09:40.046Z,99.99
2023-03-29T06:10:40.027Z,99.99
2023-03-29T06:11:40.016Z,99.99
2023-03-29T06:12:40.018Z,99.99
2023-03-29T06:13:40.004Z,99.99
2023-03-29T06:14:40.004Z,99.99
2023-03-29T06:15:40.014Z,99.99
2023-03-29T06:16:42.217Z,99.99
2023-03-29T06:17:40.114Z,99.99
2023-03-29T06:18:40.006Z,99.99
2023-03-29T06:19:39.971Z,99.99
2023-03-29T06:20:39.973Z,99.99
2023-03-29T06:21:39.990Z,99.99
2023-03-29T06:22:39.965Z,99.99
2023-03-29T06:23:39.956Z,99.99
2023-03-29T06:24:39.959Z,99.99
2023-03-29T06:25:39.950Z,99.99
2023-03-29T06:26:39.949Z,99.99
2023-03-29T06:27:39.942Z,99.99
2023-03-29T06:28:39.935Z,99.99
2023-03-29T06:29:39.934Z,99.99
2023-03-29T06:30:39.926Z,99.99
2023-03-29T06:31:39.963Z,99.99
2023-03-29T06:32:39.966Z,99.99
2023-03-29T06:33:39.909Z,99.99
2023-03-29T06:34:39.917Z,99.99
2023-03-29T06:35:39.913Z,99.99
2023-03-29T06:36:39.902Z,99.99
2023-03-29T06:37:39.912Z,99.99
2023-03-29T06:38:39.885Z,99.99
2023-03-29T06:39:39.881Z,99.99
2023-03-29T06:40:39.877Z,99.99
2023-03-29T06:41:39.884Z,99.99
2023-03-29T06:42:39.874Z,99.99
2023-03-29T06:43:39.868Z,99.99
2023-03-29T06:44:39.861Z,99.99
2023-03-29T06:45:39.880Z,99.99
2023-03-29T06:46:39.892Z,99.99
2023-03-29T06:47:39.892Z,99.99
2023-03-29T06:48:39.844Z,99.86
2023-03-29T06:49:39.840Z,99.71
2023-03-29T06:50:39.846Z,99.76
2023-03-29T06:51:39.830Z,98.79
2023-03-29T06:52:39.829Z,99.40
2023-03-29T06:53:39.853Z,98.99
2023-03-29T06:54:39.823Z,99.05
2023-03-29T06:55:39.827Z,99.05
2023-03-29T06:56:39.847Z,98.49
2023-03-29T06:57:39.820Z,97.77
2023-03-29T06:58:39.801Z,98.24
2023-03-29T06:59:39.792Z,97.10
2023-03-29T07:00:39.807Z,96.64
2023-03-29T07:01:39.902Z,97.31
2023-03-29T07:02:39.816Z,96.80
2023-03-29T07:03:39.777Z,97.00
2023-03-29T07:04:39.852Z,96.59
2023-03-29T07:05:39.774Z,96.48
2023-03-29T07:06:39.865Z,95.56
2023-03-29T07:07:39.754Z,95.67
2023-03-29T07:08:39.761Z,97.00
2023-03-29T07:09:39.818Z,96.39
2023-03-29T07:10:39.753Z,96.48
2023-03-29T07:11:39.759Z,96.48
2023-03-29T07:12:39.745Z,96.75
2023-03-29T07:13:39.739Z,96.59
2023-03-29T07:14:39.754Z,95.10
2023-03-29T07:15:39.731Z,95.21
2023-03-29T07:16:39.752Z,95.52
2023-03-29T07:17:39.764Z,95.42
2023-03-29T07:18:39.721Z,95.10
2023-03-29T07:19:39.708Z,95.47
2023-03-29T07:20:39.721Z,94.96
2023-03-29T07:21:39.698Z,94.04
2023-03-29T07:22:39.703Z,93.26
2023-03-29T07:23:39.694Z,93.83
2023-03-29T07:24:39.705Z,94.14
2023-03-29T07:25:39.717Z,94.24
2023-03-29T07:26:46.317Z,93.93
2023-03-29T07:27:39.676Z,94.34
2023-03-29T07:28:39.912Z,94.40
2023-03-29T07:29:39.667Z,94.10
2023-03-29T07:30:39.668Z,93.89
2023-03-29T07:31:39.664Z,93.59
2023-03-29T07:32:39.738Z,93.33
2023-03-29T07:33:39.969Z,93.17
2023-03-29T07:34:39.661Z,93.23
2023-03-29T07:35:39.677Z,93.13
2023-03-29T07:36:39.653Z,93.29
2023-03-29T07:37:39.663Z,92.88
2023-03-29T07:38:39.643Z,92.47
2023-03-29T07:39:39.633Z,92.02
2023-03-29T07:40:39.635Z,91.82
2023-03-29T07:41:39.656Z,92.28
2023-03-29T07:42:39.632Z,91.26
2023-03-29T07:43:39.621Z,90.30
2023-03-29T07:44:39.618Z,90.09
2023-03-29T07:45:39.643Z,89.58
2023-03-29T07:46:39.618Z,89.74
2023-03-29T07:47:39.655Z,88.82
2023-03-29T07:48:39.619Z,89.03
2023-03-29T07:49:39.599Z,88.96
2023-03-29T07:50:39.603Z,88.56
2023-03-29T07:51:39.600Z,89.03
2023-03-29T07:52:39.600Z,89.03
2023-03-29T07:53:39.592Z,88.92
2023-03-29T07:54:39.595Z,88.31
2023-03-29T07:55:39.601Z,88.45
2023-03-29T07:56:39.710Z,88.96
2023-03-29T07:57:39.598Z,89.27
2023-03-29T07:58:39.582Z,89.43
2023-03-29T07:59:39.570Z,88.31
2023-03-29T08:00:39.587Z,88.82
2023-03-29T08:01:39.563Z,88.20
2023-03-29T08:02:39.584Z,87.76
2023-03-29T08:03:39.590Z,87.65
2023-03-29T08:04:39.575Z,87.96
2023-03-29T08:05:41.717Z,87.55
2023-03-29T08:06:39.550Z,86.55
2023-03-29T08:07:39.554Z,86.06
2023-03-29T08:08:39.543Z,84.75
2023-03-29T08:09:39.541Z,84.12
2023-03-29T08:10:39.673Z,81.87
2023-03-29T08:11:39.532Z,80.19
2023-03-29T08:12:39.533Z,78.77
2023-03-29T08:13:39.557Z,77.20
2023-03-29T08:14:39.534Z,75.21
2023-03-29T08:15:39.606Z,73.55
2023-03-29T08:16:39.594Z,71.87
2023-03-29T08:17:39.557Z,71.16
2023-03-29T08:18:39.535Z,70.12
2023-03-29T08:19:39.519Z,67.28
2023-03-29T08:20:39.526Z,66.25
2023-03-29T08:21:39.526Z,65.99
2023-03-29T08:22:39.522Z,64.36
2023-03-29T08:23:39.520Z,64.75
2023-03-29T08:24:39.534Z,65.38
2023-03-29T08:25:39.515Z,66.58
2023-03-29T08:26:39.524Z,66.32
2023-03-29T08:27:39.520Z,65.75
2023-03-29T08:28:39.523Z,66.71
2023-03-29T08:29:39.545Z,67.01
2023-03-29T08:30:39.569Z,68.32
2023-03-29T08:31:39.524Z,67.61
2023-03-29T08:32:39.587Z,67.48
2023-03-29T08:33:39.513Z,67.48
2023-03-29T08:34:39.518Z,66.24
2023-03-29T08:35:39.554Z,67.71
2023-03-29T08:36:39.516Z,69.52
2023-03-29T08:37:39.542Z,68.31
2023-03-29T08:38:39.530Z,68.55
2023-03-29T08:39:39.516Z,69.42
2023-03-29T08:40:39.511Z,70.86
2023-03-29T08:41:39.518Z,70.79
2023-03-29T08:42:39.522Z,70.96
2023-03-29T08:43:39.518Z,71.73
2023-03-29T08:44:39.515Z,73.28
2023-03-29T08:45:39.540Z,73.79
2023-03-29T08:46:39.593Z,73.72
2023-03-29T08:47:39.575Z,72.68
2023-03-29T08:48:39.517Z,71.73
2023-03-29T08:49:39.516Z,71.13
2023-03-29T08:50:39.520Z,69.89
2023-03-29T08:51:39.539Z,69.09
2023-03-29T08:52:39.520Z,67.92
2023-03-29T08:53:39.523Z,65.83
2023-03-29T08:54:39.524Z,63.17
2023-03-29T08:55:39.532Z,63.49
2023-03-29T08:56:39.575Z,64.03
2023-03-29T08:57:39.577Z,64.59
2023-03-29T08:58:39.520Z,63.63
2023-03-29T08:59:39.530Z,63.46
2023-03-29T09:00:39.523Z,63.06
2023-03-29T09:01:39.592Z,63.83
2023-03-29T09:02:39.649Z,62.90
2023-03-29T09:03:39.740Z,63.50
2023-03-29T09:04:39.528Z,64.42
2023-03-29T09:05:39.533Z,64.48
2023-03-29T09:06:39.539Z,65.74
2023-03-29T09:07:39.536Z,67.25
2023-03-29T09:08:39.546Z,68.15
2023-03-29T09:09:39.545Z,67.45
2023-03-29T09:10:39.562Z,67.55
2023-03-29T09:11:39.552Z,67.51
2023-03-29T09:12:39.543Z,68.25
2023-03-29T09:13:39.546Z,67.55
2023-03-29T09:14:39.544Z,65.89
2023-03-29T09:15:39.581Z,66.42
2023-03-29T09:16:39.552Z,65.93
2023-03-29T09:17:39.632Z,64.43
2023-03-29T09:18:39.547Z,64.36
2023-03-29T09:19:39.553Z,64.00
2023-03-29T09:20:39.564Z,64.46
2023-03-29T09:21:39.560Z,63.33
2023-03-29T09:22:39.570Z,63.09
2023-03-29T09:23:39.564Z,64.46
2023-03-29T09:24:39.573Z,64.00
2023-03-29T09:25:50.825Z,64.39
2023-03-29T09:26:39.571Z,66.09
2023-03-29T09:27:39.566Z,65.55
2023-03-29T09:28:39.566Z,67.72
2023-03-29T09:29:39.571Z,68.52
2023-03-29T09:30:39.573Z,69.06
2023-03-29T09:31:39.593Z,70.06
2023-03-29T09:32:39.599Z,70.86
2023-03-29T09:33:39.595Z,71.73
2023-03-29T09:34:39.575Z,73.08
2023-03-29T09:35:39.684Z,73.52
2023-03-29T09:36:39.577Z,73.35
2023-03-29T09:37:39.587Z,74.40
2023-03-29T09:38:39.620Z,75.17
2023-03-29T09:39:39.583Z,76.08
2023-03-29T09:40:39.581Z,76.32
2023-03-29T09:41:39.603Z,77.03
2023-03-29T09:42:39.586Z,77.23
2023-03-29T09:43:39.587Z,77.47
2023-03-29T09:44:39.584Z,77.87
2023-03-29T09:45:39.614Z,78.28
2023-03-29T09:46:39.585Z,78.21
2023-03-29T09:47:39.646Z,78.55
2023-03-29T09:48:39.601Z,78.86
2023-03-29T09:49:39.616Z,78.86
2023-03-29T09:50:39.587Z,79.33
2023-03-29T09:51:39.592Z,78.92
2023-03-29T09:52:39.612Z,78.25
2023-03-29T09:53:39.603Z,78.66
2023-03-29T09:54:39.590Z,78.72
2023-03-29T09:55:39.597Z,78.62
2023-03-29T09:56:39.630Z,79.25
2023-03-29T09:57:39.592Z,77.64
2023-03-29T09:58:39.597Z,77.13
2023-03-29T09:59:39.605Z,77.76
2023-03-29T10:00:39.617Z,77.42
2023-03-29T10:01:39.661Z,76.95
2023-03-29T10:02:39.616Z,76.24
2023-03-29T10:03:39.601Z,75.37
2023-03-29T10:04:39.666Z,75.37
2023-03-29T10:05:39.618Z,75.67
2023-03-29T10:06:39.599Z,75.71
2023-03-29T10:07:39.601Z,76.28
2023-03-29T10:08:39.602Z,76.86
2023-03-29T10:09:39.625Z,77.80
2023-03-29T10:10:39.603Z,77.80
2023-03-29T10:11:39.600Z,77.13
2023-03-29T10:12:39.607Z,77.23
2023-03-29T10:13:39.611Z,78.44
2023-03-29T10:14:39.599Z,77.33
2023-03-29T10:15:39.597Z,78.64
2023-03-29T10:16:39.673Z,77.70
2023-03-29T10:17:39.658Z,77.70
2023-03-29T10:18:39.604Z,77.36
2023-03-29T10:19:39.601Z,76.82
2023-03-29T10:20:39.599Z,76.84
2023-03-29T10:21:39.632Z,75.40
2023-03-29T10:22:39.596Z,75.23
2023-03-29T10:23:39.598Z,76.44
2023-03-29T10:24:39.596Z,76.61
2023-03-29T10:25:42.335Z,74.96
2023-03-29T10:26:39.597Z,74.62
2023-03-29T10:27:39.599Z,74.86
2023-03-29T10:28:39.593Z,74.02
2023-03-29T10:29:39.615Z,74.32
2023-03-29T10:30:39.597Z,74.42
2023-03-29T10:31:39.676Z,74.32
2023-03-29T10:32:39.647Z,74.76
2023-03-29T10:33:39.609Z,75.06
2023-03-29T10:34:39.594Z,76.14
2023-03-29T10:35:39.610Z,74.73
2023-03-29T10:36:39.603Z,74.82
2023-03-29T10:37:39.623Z,75.02
2023-03-29T10:38:39.593Z,75.43
2023-03-29T10:39:39.602Z,73.72
2023-03-29T10:40:39.609Z,74.32
2023-03-29T10:41:39.597Z,74.46
2023-03-29T10:42:39.591Z,73.68
2023-03-29T10:43:39.603Z,75.60
2023-03-29T10:44:39.601Z,75.63
2023-03-29T10:45:39.599Z,75.43
2023-03-29T10:46:39.645Z,75.60
2023-03-29T10:47:39.623Z,77.15
2023-03-29T10:48:39.596Z,77.50
2023-03-29T10:49:39.603Z,77.19
2023-03-29T10:50:39.597Z,77.90
2023-03-29T10:51:39.598Z,77.13
2023-03-29T10:52:39.598Z,78.34
2023-03-29T10:53:39.620Z,78.75
2023-03-29T10:54:39.597Z,78.75
2023-03-29T10:55:39.594Z,79.32
2023-03-29T10:56:39.665Z,79.21
2023-03-29T10:57:39.644Z,79.11
2023-03-29T10:58:39.594Z,78.61
2023-03-29T10:59:39.601Z,78.30
2023-03-29T11:00:39.601Z,78.44
2023-03-29T11:01:39.642Z,79.15
2023-03-29T11:02:39.716Z,78.64
2023-03-29T11:03:39.666Z,79.05
2023-03-29T11:04:39.603Z,78.95
2023-03-29T11:05:39.598Z,79.25
2023-03-29T11:06:39.592Z,78.50
2023-03-29T11:07:39.608Z,78.95
2023-03-29T11:08:39.599Z,79.75
2023-03-29T11:09:39.619Z,78.91
2023-03-29T11:10:39.609Z,78.91
2023-03-29T11:11:39.592Z,79.52
2023-03-29T11:12:39.619Z,78.95
2023-03-29T11:13:39.598Z,79.66
2023-03-29T11:14:39.589Z,78.95
2023-03-29T11:15:39.653Z,79.79
2023-03-29T11:16:39.590Z,79.39
2023-03-29T11:17:39.669Z,79.66
2023-03-29T11:18:39.594Z,79.66
2023-03-29T11:19:39.607Z,80.26
2023-03-29T11:20:39.593Z,80.10
2023-03-29T11:21:39.647Z,80.00
2023-03-29T11:22:39.591Z,79.93
2023-03-29T11:23:39.603Z,80.13
2023-03-29T11:24:39.585Z,80.58
2023-03-29T11:25:39.624Z,80.78
2023-03-29T11:26:39.592Z,81.12
2023-03-29T11:27:39.593Z,82.03
2023-03-29T11:28:39.594Z,81.59
2023-03-29T11:29:39.596Z,81.18
2023-03-29T11:30:39.593Z,81.59
2023-03-29T11:31:39.644Z,81.63
2023-03-29T11:32:39.636Z,81.79
2023-03-29T11:33:39.606Z,81.52
2023-03-29T11:34:39.585Z,81.43
2023-03-29T11:35:39.658Z,82.03
2023-03-29T11:36:39.592Z,83.29
2023-03-29T11:37:39.589Z,83.12
2023-03-29T11:38:39.583Z,83.18
2023-03-29T11:39:39.602Z,82.78
2023-03-29T11:40:39.591Z,83.33
2023-03-29T11:41:39.621Z,83.33
2023-03-29T11:42:39.584Z,83.53
2023-03-29T11:43:39.585Z,83.49
2023-03-29T11:44:39.581Z,82.68
2023-03-29T11:45:39.588Z,82.89
2023-03-29T11:46:39.645Z,83.12
2023-03-29T11:47:39.599Z,83.18
2023-03-29T11:48:39.580Z,83.18
2023-03-29T11:49:39.580Z,82.60
2023-03-29T11:50:39.575Z,83.31
2023-03-29T11:51:39.597Z,81.59
2023-03-29T11:52:39.576Z,82.17
2023-03-29T11:53:39.582Z,82.68
2023-03-29T11:54:39.574Z,83.12
2023-03-29T11:55:39.578Z,83.47
2023-03-29T11:56:39.606Z,84.08
2023-03-29T11:57:39.611Z,84.24
2023-03-29T11:58:39.580Z,83.12
2023-03-29T11:59:39.580Z,83.57
2023-03-29T12:00:39.576Z,83.57
2023-03-29T12:01:39.629Z,83.23
2023-03-29T12:02:39.648Z,83.03
2023-03-29T12:03:39.719Z,83.03
2023-03-29T12:04:39.570Z,82.89
2023-03-29T12:05:39.574Z,83.09
2023-03-29T12:06:39.580Z,82.98
2023-03-29T12:07:39.573Z,82.58
2023-03-29T12:08:39.578Z,82.48
2023-03-29T12:09:39.573Z,82.68
2023-03-29T12:10:39.569Z,83.04
2023-03-29T12:11:39.571Z,83.09
2023-03-29T12:12:39.568Z,82.90
2023-03-29T12:13:39.596Z,83.11
2023-03-29T12:14:39.565Z,81.79
2023-03-29T12:15:39.568Z,81.25
2023-03-29T12:16:39.620Z,80.68
2023-03-29T12:17:39.576Z,81.99
2023-03-29T12:18:39.576Z,81.29
2023-03-29T12:19:42.681Z,81.63
2023-03-29T12:20:39.570Z,82.50
2023-03-29T12:21:39.564Z,82.70
2023-03-29T12:22:39.557Z,82.54
2023-03-29T12:23:39.563Z,82.75
2023-03-29T12:24:39.559Z,82.64
2023-03-29T12:25:39.571Z,83.04
2023-03-29T12:26:39.556Z,82.03
2023-03-29T12:27:39.557Z,81.83
2023-03-29T12:28:39.555Z,82.54
2023-03-29T12:29:39.576Z,82.34
2023-03-29T12:30:39.559Z,83.11
2023-03-29T12:31:39.625Z,82.76
2023-03-29T12:32:39.599Z,81.45
2023-03-29T12:33:39.560Z,81.71
2023-03-29T12:34:39.559Z,82.32
2023-03-29T12:35:39.577Z,81.85
2023-03-29T12:36:39.555Z,81.79
2023-03-29T12:37:39.556Z,82.70
2023-03-29T12:38:39.575Z,83.01
2023-03-29T12:39:39.592Z,83.15
2023-03-29T12:40:39.558Z,83.18
2023-03-29T12:41:39.554Z,82.95
2023-03-29T12:42:39.588Z,83.09
2023-03-29T12:43:39.554Z,82.98
2023-03-29T12:44:39.560Z,82.98
2023-03-29T12:45:39.658Z,83.18
2023-03-29T12:46:39.573Z,83.04
2023-03-29T12:47:39.612Z,83.15
2023-03-29T12:48:39.588Z,83.04
2023-03-29T12:49:39.554Z,83.04
2023-03-29T12:50:39.562Z,83.21
2023-03-29T12:51:39.555Z,81.69
2023-03-29T12:52:39.547Z,81.79
2023-03-29T12:53:39.562Z,82.10
2023-03-29T12:54:39.545Z,82.14